createdAt,value
2023-04-29T00:00:11.370Z,14.27
2023-04-29T00:02:42.839Z,14.07
2023-04-29T00:05:14.401Z,13.91
2023-04-29T00:07:43.037Z,13.89
2023-04-29T00:10:12.540Z,13.86
2023-04-29T00:12:41.580Z,13.78
2023-04-29T00:15:09.954Z,13.68
2023-04-29T00:17:38.119Z,13.61
2023-04-29T00:20:06.861Z,13.53
2023-04-29T00:22:36.417Z,13.40
2023-04-29T00:25:04.689Z,13.37
2023-04-29T00:27:32.678Z,13.45
2023-04-29T00:30:00.527Z,13.55
2023-04-29T00:32:28.836Z,13.59
2023-04-29T00:34:57.573Z,13.70
2023-04-29T00:37:25.677Z,13.76
2023-04-29T00:39:55.386Z,13.76
2023-04-29T00:42:23.784Z,13.72
2023-04-29T00:44:51.647Z,13.68
2023-04-29T00:47:19.683Z,13.66
2023-04-29T00:49:47.747Z,13.79
2023-04-29T00:52:16.145Z,13.95
2023-04-29T00:54:44.957Z,14.18
2023-04-29T00:57:16.734Z,14.18
2023-04-29T00:59:45.912Z,14.26
2023-04-29T01:02:15.186Z,14.39
2023-04-29T01:04:43.648Z,14.51
2023-04-29T01:07:15.798Z,14.57
2023-04-29T01:09:50.017Z,14.63
2023-04-29T01:12:27.432Z,14.65
2023-04-29T01:15:05.060Z,14.68
2023-04-29T01:17:38.655Z,14.69
2023-04-29T01:20:07.932Z,14.68
2023-04-29T01:22:36.871Z,14.70
2023-04-29T01:25:06.930Z,14.80
2023-04-29T01:27:52.622Z,14.93
2023-04-29T01:30:25.982Z,15.02
2023-04-29T01:32:57.051Z,15.06
2023-04-29T01:35:41.962Z,14.95
2023-04-29T01:38:19.578Z,14.28
2023-04-29T01:40:56.879Z,13.57
2023-04-29T01:43:29.588Z,13.35
2023-04-29T01:45:59.453Z,13.53
2023-04-29T01:48:28.243Z,13.70
2023-04-29T01:50:55.978Z,14.02
2023-04-29T01:53:23.814Z,14.24
2023-04-29T01:55:52.971Z,14.33
2023-04-29T01:58:24.267Z,14.30
2023-04-29T02:01:02.184Z,14.32
2023-04-29T02:03:33.091Z,14.30
2023-04-29T02:06:02.766Z,14.21
2023-04-29T02:08:30.938Z,14.09
2023-04-29T02:11:00.778Z,14.00
2023-04-29T02:13:39.696Z,13.87
2023-04-29T02:16:11.419Z,13.20
2023-04-29T02:18:59.255Z,12.89
2023-04-29T02:21:27.303Z,12.76
2023-04-29T02:24:11.388Z,13.07
2023-04-29T02:26:40.400Z,13.12
2023-04-29T02:29:10.953Z,12.90
2023-04-29T02:31:39.133Z,12.69
2023-04-29T02:34:07.534Z,12.78
2023-04-29T02:36:35.278Z,12.58
2023-04-29T02:39:03.131Z,12.61
2023-04-29T02:41:31.945Z,12.66
2023-04-29T02:44:01.384Z,12.67
2023-04-29T02:46:29.379Z,13.11
2023-04-29T02:48:57.442Z,13.64
2023-04-29T02:51:25.077Z,14.01
2023-04-29T02:53:52.901Z,14.12
2023-04-29T02:56:21.681Z,14.16
2023-04-29T02:58:49.558Z,14.15
2023-04-29T03:01:19.035Z,14.21
2023-04-29T03:03:47.478Z,14.29
2023-04-29T03:06:15.951Z,14.23
2023-04-29T03:08:43.637Z,14.39
2023-04-29T03:11:11.588Z,14.59
2023-04-29T03:13:39.942Z,14.45
2023-04-29T03:16:09.140Z,14.33
2023-04-29T03:18:38.812Z,14.20
2023-04-29T03:21:07.090Z,13.94
2023-04-29T03:23:35.196Z,13.74
2023-04-29T03:26:05.350Z,13.76
2023-04-29T03:28:33.162Z,13.69
2023-04-29T03:31:01.907Z,13.60
2023-04-29T03:33:29.738Z,13.53
2023-04-29T03:35:58.963Z,13.63
2023-04-29T03:38:40.050Z,13.60
2023-04-29T03:41:07.939Z,13.40
2023-04-29T03:43:35.946Z,13.49
2023-04-29T03:46:04.239Z,13.50
2023-04-29T03:48:33.110Z,13.28
2023-04-29T03:51:03.734Z,13.23
2023-04-29T03:53:32.986Z,12.94
2023-04-29T03:56:01.704Z,13.08
2023-04-29T03:58:29.505Z,13.21
2023-04-29T04:00:57.869Z,13.23
2023-04-29T04:03:33.945Z,13.11
2023-04-29T04:06:03.759Z,13.01
2023-04-29T04:08:31.667Z,12.87
2023-04-29T04:11:08.627Z,12.52
2023-04-29T04:13:41.654Z,12.48
2023-04-29T04:16:12.138Z,12.59
2023-04-29T04:18:41.296Z,12.88
2023-04-29T04:21:11.962Z,13.02
2023-04-29T04:23:44.005Z,13.32
2023-04-29T04:26:15.469Z,13.59
2023-04-29T04:28:44.373Z,13.83
2023-04-29T04:31:18.674Z,14.07
2023-04-29T04:33:47.658Z,14.23
2023-04-29T04:36:17.915Z,14.41
2023-04-29T04:38:46.343Z,14.58
2023-04-29T04:41:15.836Z,14.75
2023-04-29T04:43:46.484Z,14.90
2023-04-29T04:46:20.450Z,15.03
2023-04-29T04:49:16.777Z,15.18
2023-04-29T04:51:55.074Z,15.24
2023-04-29T04:54:23.224Z,15.21
2023-04-29T04:56:56.311Z,15.15
2023-04-29T04:59:24.297Z,14.98
2023-04-29T05:01:52.113Z,15.05
2023-04-29T05:04:20.418Z,15.14
2023-04-29T05:06:48.775Z,15.27
2023-04-29T05:09:18.056Z,15.32
2023-04-29T05:11:46.586Z,15.17
2023-04-29T05:14:18.385Z,15.20
2023-04-29T05:16:47.113Z,15.20
2023-04-29T05:19:16.239Z,15.32
2023-04-29T05:21:45.662Z,15.51
2023-04-29T05:24:15.558Z,15.86
2023-04-29T05:26:44.956Z,15.62
2023-04-29T05:29:12.899Z,15.70
2023-04-29T05:31:48.808Z,16.01
2023-04-29T05:34:17.098Z,16.24
2023-04-29T05:36:44.758Z,16.45
2023-04-29T05:39:12.705Z,16.69
2023-04-29T05:41:40.662Z,16.91
2023-04-29T05:44:20.907Z,17.20
2023-04-29T05:46:49.276Z,16.70
2023-04-29T05:49:18.186Z,15.61
2023-04-29T05:51:45.937Z,14.85
2023-04-29T05:54:14.473Z,13.85
2023-04-29T05:56:42.593Z,13.98
2023-04-29T05:59:10.915Z,13.58
2023-04-29T06:01:40.487Z,13.21
2023-04-29T06:04:09.097Z,13.19
2023-04-29T06:06:58.768Z,13.54
2023-04-29T06:10:00.017Z,13.67
2023-04-29T06:12:29.104Z,13.37
2023-04-29T06:14:59.385Z,13.24
2023-04-29T06:17:29.929Z,13.23
2023-04-29T06:19:58.197Z,13.37
2023-04-29T06:22:26.179Z,13.46
2023-04-29T06:24:57.133Z,13.49
2023-04-29T06:27:41.257Z,13.37
2023-04-29T06:30:09.741Z,14.01
2023-04-29T06:32:41.854Z,14.14
2023-04-29T06:35:11.935Z,13.96
2023-04-29T06:38:11.408Z,14.08
2023-04-29T06:40:42.168Z,14.64
2023-04-29T06:43:28.781Z,14.24
2023-04-29T06:46:17.155Z,14.22
2023-04-29T06:49:02.483Z,14.79
2023-04-29T06:51:32.730Z,14.36
2023-04-29T06:54:01.649Z,14.15
2023-04-29T06:56:29.453Z,13.74
2023-04-29T06:58:57.508Z,14.16
2023-04-29T07:01:25.932Z,14.46
2023-04-29T07:03:54.266Z,14.29
2023-04-29T07:06:24.343Z,14.11
2023-04-29T07:08:54.864Z,14.31
2023-04-29T07:11:25.191Z,13.65
2023-04-29T07:13:53.746Z,13.96
2023-04-29T07:16:22.298Z,14.40
2023-04-29T07:18:51.348Z,14.18
2023-04-29T07:21:19.185Z,14.06
2023-04-29T07:23:48.883Z,14.49
2023-04-29T07:26:17.781Z,14.45
2023-04-29T07:28:46.963Z,13.87
2023-04-29T07:31:16.831Z,14.07
2023-04-29T07:33:45.810Z,14.35
2023-04-29T07:36:13.567Z,14.45
2023-04-29T07:38:41.801Z,14.95
2023-04-29T07:41:11.939Z,14.78
2023-04-29T07:43:42.590Z,15.12
2023-04-29T07:46:10.804Z,14.90
2023-04-29T07:48:39.465Z,14.97
2023-04-29T07:51:08.916Z,15.18
2023-04-29T07:53:36.740Z,14.63
2023-04-29T07:56:06.468Z,14.10
2023-04-29T07:58:35.545Z,14.20
2023-04-29T08:01:07.110Z,14.27
2023-04-29T08:03:36.850Z,14.37
2023-04-29T08:06:06.707Z,14.99
2023-04-29T08:08:36.240Z,14.92
2023-04-29T08:11:03.916Z,14.86
2023-04-29T08:13:31.918Z,14.67
2023-04-29T08:16:01.607Z,14.38
2023-04-29T08:18:29.955Z,14.56
2023-04-29T08:20:58.046Z,14.23
2023-04-29T08:23:26.712Z,14.56
2023-04-29T08:25:56.064Z,14.33
2023-04-29T08:28:24.497Z,14.37
2023-04-29T08:30:52.757Z,14.77
2023-04-29T08:33:22.329Z,14.32
2023-04-29T08:35:50.486Z,14.80
2023-04-29T08:38:18.403Z,14.92
2023-04-29T08:40:48.263Z,14.72
2023-04-29T08:43:16.562Z,14.56
2023-04-29T08:45:44.964Z,14.11
2023-04-29T08:48:13.307Z,14.49
2023-04-29T08:50:43.254Z,14.98
2023-04-29T08:53:12.368Z,14.29
2023-04-29T08:55:42.920Z,14.25
2023-04-29T08:58:12.402Z,13.84
2023-04-29T09:00:41.169Z,14.20
2023-04-29T09:03:13.797Z,14.35
2023-04-29T09:05:44.555Z,14.43
2023-04-29T09:08:12.887Z,14.08
2023-04-29T09:10:41.297Z,14.20
2023-04-29T09:13:09.359Z,14.40
2023-04-29T09:15:37.848Z,14.34
2023-04-29T09:18:06.157Z,14.41
2023-04-29T09:20:34.164Z,14.30
2023-04-29T09:23:04.859Z,14.36
2023-04-29T09:25:32.947Z,14.36
2023-04-29T09:28:15.572Z,14.47
2023-04-29T09:30:47.157Z,14.20
2023-04-29T09:33:16.915Z,13.87
2023-04-29T09:35:44.684Z,14.18
2023-04-29T09:38:14.967Z,14.42
2023-04-29T09:40:58.308Z,14.22
2023-04-29T09:43:27.124Z,13.77
2023-04-29T09:45:55.478Z,14.09
2023-04-29T09:48:23.545Z,14.49
2023-04-29T09:51:01.679Z,14.02
2023-04-29T09:53:32.137Z,14.08
2023-04-29T09:56:01.210Z,14.03
2023-04-29T09:58:30.367Z,14.17
2023-04-29T10:01:01.075Z,14.40
2023-04-29T10:03:32.977Z,13.71
2023-04-29T10:06:02.024Z,14.09
2023-04-29T10:08:32.271Z,14.65
2023-04-29T10:11:01.035Z,14.34
2023-04-29T10:13:29.674Z,14.17
2023-04-29T10:16:02.172Z,13.74
2023-04-29T10:18:36.430Z,13.38
2023-04-29T10:21:05.096Z,13.59
2023-04-29T10:23:34.858Z,14.07
2023-04-29T10:26:04.432Z,13.79
2023-04-29T10:28:32.794Z,13.48
2023-04-29T10:31:02.986Z,13.77
2023-04-29T10:33:32.401Z,13.95
2023-04-29T10:36:01.318Z,13.82
2023-04-29T10:38:30.874Z,14.23
2023-04-29T10:41:02.469Z,14.47
2023-04-29T10:43:31.593Z,14.62
2023-04-29T10:46:18.077Z,14.56
2023-04-29T10:48:45.890Z,14.95
2023-04-29T10:51:14.558Z,14.88
2023-04-29T10:53:57.566Z,14.90
2023-04-29T10:56:36.283Z,14.86
2023-04-29T10:59:04.275Z,14.16
2023-04-29T11:01:42.427Z,13.62
2023-04-29T11:04:11.760Z,13.16
2023-04-29T11:06:41.532Z,12.83
2023-04-29T11:09:11.283Z,12.87
2023-04-29T11:11:44.352Z,13.01
2023-04-29T11:14:13.798Z,13.55
2023-04-29T11:16:49.023Z,13.76
2023-04-29T11:19:18.618Z,13.79
2023-04-29T11:21:48.207Z,14.04
2023-04-29T11:24:17.678Z,14.57
2023-04-29T11:26:46.791Z,15.01
2023-04-29T11:29:15.187Z,14.36
2023-04-29T11:31:43.185Z,14.02
2023-04-29T11:34:11.834Z,14.21
2023-04-29T11:36:40.412Z,14.45
2023-04-29T11:39:09.451Z,15.23
2023-04-29T11:41:39.449Z,16.37
2023-04-29T11:44:10.264Z,16.76
2023-04-29T11:46:38.854Z,17.35
2023-04-29T11:49:06.758Z,16.94
2023-04-29T11:51:35.920Z,18.85
2023-04-29T11:54:04.297Z,17.66
2023-04-29T11:56:33.259Z,18.64
2023-04-29T11:59:02.490Z,19.46
2023-04-29T12:01:31.707Z,24.44
2023-04-29T12:04:01.231Z,22.33
2023-04-29T12:06:30.487Z,25.70
2023-04-29T12:09:00.180Z,23.92
2023-04-29T12:11:28.419Z,25.48
2023-04-29T12:13:56.825Z,27.68
2023-04-29T12:16:26.027Z,23.09
2023-04-29T12:18:56.072Z,22.57
2023-04-29T12:21:24.113Z,22.73
2023-04-29T12:23:52.035Z,24.57
2023-04-29T12:26:21.262Z,28.40
2023-04-29T12:28:50.341Z,28.34
2023-04-29T12:31:18.788Z,25.41
2023-04-29T12:33:46.708Z,21.29
2023-04-29T12:36:19.347Z,24.88
2023-04-29T12:38:48.731Z,26.39
2023-04-29T12:41:17.572Z,23.90
2023-04-29T12:43:46.837Z,23.71
2023-04-29T12:46:15.325Z,22.94
2023-04-29T12:48:44.512Z,20.67
2023-04-29T12:51:13.466Z,21.66
2023-04-29T12:53:42.782Z,23.25
2023-04-29T12:56:13.205Z,24.89
2023-04-29T12:58:41.809Z,24.20
2023-04-29T13:03:38.092Z,19.19
2023-04-29T13:06:08.897Z,21.17
2023-04-29T13:08:38.009Z,21.95
2023-04-29T13:11:07.634Z,20.99
2023-04-29T13:13:35.807Z,21.67
2023-04-29T13:16:04.303Z,19.19
2023-04-29T13:18:34.789Z,17.85
2023-04-29T13:21:04.583Z,17.18
2023-04-29T13:23:32.765Z,16.92
2023-04-29T13:26:01.295Z,17.90
2023-04-29T13:28:30.642Z,18.14
2023-04-29T13:30:58.862Z,18.52
2023-04-29T13:33:26.927Z,18.71
2023-04-29T13:35:54.910Z,18.23
2023-04-29T13:38:23.112Z,17.40
2023-04-29T13:40:54.791Z,17.62
2023-04-29T13:43:33.835Z,18.03
2023-04-29T13:46:08.439Z,18.37
2023-04-29T13:49:11.183Z,18.69
2023-04-29T13:52:09.802Z,17.41
2023-04-29T14:04:22.252Z,16.52
2023-04-29T14:06:50.198Z,16.82
2023-04-29T14:09:18.865Z,17.56
2023-04-29T14:11:47.008Z,17.89
2023-04-29T14:14:15.221Z,17.48
2023-04-29T14:16:44.313Z,17.60
2023-04-29T14:19:13.982Z,17.22
2023-04-29T14:21:41.879Z,17.86
2023-04-29T14:24:09.926Z,17.54
2023-04-29T14:26:37.901Z,17.90
2023-04-29T14:29:06.090Z,17.65
2023-04-29T14:31:37.998Z,16.42
2023-04-29T14:34:06.788Z,16.45
2023-04-29T14:36:36.786Z,15.89
2023-04-29T14:39:05.602Z,15.87
2023-04-29T14:41:34.202Z,15.95
2023-04-29T14:44:02.557Z,16.09
2023-04-29T14:46:30.877Z,16.03
2023-04-29T14:48:59.076Z,16.15
2023-04-29T14:51:27.402Z,16.57
2023-04-29T14:53:57.025Z,16.65
2023-04-29T16:11:32.267Z,16.24
2023-04-29T16:14:01.338Z,15.93
2023-04-29T16:16:29.215Z,15.70
2023-04-29T16:18:57.252Z,15.85
2023-04-29T16:21:27.732Z,15.23
2023-04-29T16:23:55.639Z,15.40
2023-04-29T16:26:23.886Z,15.09
2023-04-29T16:28:53.233Z,14.86
2023-04-29T16:31:21.129Z,14.94
2023-04-29T16:33:49.436Z,15.01
2023-04-29T16:36:17.340Z,14.86
2023-04-29T16:38:45.785Z,14.68
2023-04-29T16:41:15.700Z,14.47
2023-04-29T16:43:43.425Z,14.70
2023-04-29T16:46:12.727Z,14.76
2023-04-29T16:48:40.840Z,14.68
2023-04-29T16:51:09.644Z,14.65
2023-04-29T16:53:37.736Z,14.53
2023-04-29T16:56:05.888Z,14.38
2023-04-29T16:58:33.632Z,14.25
2023-04-29T17:01:02.090Z,14.25
2023-04-29T17:03:31.621Z,14.30
2023-04-29T17:05:59.848Z,14.18
2023-04-29T17:08:28.750Z,14.03
2023-04-29T17:10:57.633Z,13.94
2023-04-29T17:13:25.958Z,13.86
2023-04-29T17:15:54.116Z,13.95
2023-04-29T17:18:22.650Z,14.16
2023-04-29T17:20:51.854Z,13.87
2023-04-29T17:23:19.497Z,13.92
2023-04-29T17:25:47.486Z,13.93
2023-04-29T17:28:15.865Z,14.02
2023-04-29T17:30:43.611Z,14.09
2023-04-29T17:33:13.416Z,13.86
2023-04-29T17:35:41.906Z,13.58
2023-04-29T17:38:12.469Z,13.64
2023-04-29T17:40:40.500Z,13.83
2023-04-29T17:43:08.547Z,14.01
2023-04-29T17:45:40.135Z,13.83
2023-04-29T17:48:08.295Z,13.82
2023-04-29T17:50:36.149Z,13.82
2023-04-29T17:53:03.816Z,13.71
2023-04-29T17:55:32.896Z,13.56
2023-04-29T17:58:00.892Z,13.63
2023-04-29T18:00:28.736Z,13.63
2023-04-29T18:02:56.870Z,13.82
2023-04-29T18:05:25.226Z,13.70
2023-04-29T18:07:52.858Z,13.67
2023-04-29T18:10:20.940Z,13.67
2023-04-29T18:12:50.276Z,13.57
2023-04-29T18:15:18.533Z,13.61
2023-04-29T18:17:46.747Z,13.75
2023-04-29T18:20:14.622Z,13.60
2023-04-29T18:22:42.764Z,13.76
2023-04-29T18:25:12.383Z,13.70
2023-04-29T18:27:40.678Z,13.78
2023-04-29T18:30:10.820Z,13.59
2023-04-29T18:32:39.224Z,13.52
2023-04-29T18:35:07.505Z,13.46
2023-04-29T18:37:36.033Z,13.46
2023-04-29T18:40:05.685Z,13.49
2023-04-29T18:42:33.809Z,13.47
2023-04-29T18:45:01.780Z,13.55
2023-04-29T18:47:31.617Z,13.29
2023-04-29T18:49:59.620Z,13.29
2023-04-29T18:52:30.016Z,13.24
2023-04-29T18:54:58.350Z,13.29
2023-04-29T18:57:29.776Z,13.27
2023-04-29T18:59:58.391Z,13.30
2023-04-29T19:02:26.491Z,13.36
2023-04-29T19:04:57.255Z,13.26
2023-04-29T19:07:26.183Z,13.32
2023-04-29T19:09:55.862Z,13.23
2023-04-29T19:12:25.776Z,13.24
2023-04-29T19:14:54.064Z,13.32
2023-04-29T19:17:22.422Z,13.22
2023-04-29T19:19:51.190Z,13.29
2023-04-29T19:22:20.850Z,13.25
2023-04-29T19:24:49.057Z,13.09
2023-04-29T19:27:19.620Z,13.20
2023-04-29T19:29:47.799Z,13.30
2023-04-29T19:32:17.124Z,13.26
2023-04-29T19:34:45.376Z,13.20
2023-04-29T19:37:13.714Z,13.27
2023-04-29T19:39:43.567Z,13.17
2023-04-29T19:42:12.592Z,13.17
2023-04-29T19:44:40.786Z,13.27
2023-04-29T19:47:12.845Z,13.23
2023-04-29T19:49:41.954Z,13.14
2023-04-29T19:52:10.359Z,12.95
2023-04-29T19:54:38.970Z,12.92
2023-04-29T19:57:08.122Z,13.06
2023-04-29T19:59:35.778Z,13.03
2023-04-29T20:02:03.610Z,13.05
2023-04-29T20:04:31.548Z,13.08
2023-04-29T20:06:59.597Z,13.06
2023-04-29T20:09:27.943Z,13.07
2023-04-29T20:11:55.695Z,13.11
2023-04-29T20:14:25.004Z,13.10
2023-04-29T20:16:54.623Z,13.02
2023-04-29T20:19:22.514Z,12.89
2023-04-29T20:21:51.124Z,12.91
2023-04-29T20:24:18.696Z,12.96
2023-04-29T20:26:46.519Z,12.93
2023-04-29T20:29:14.207Z,13.13
2023-04-29T20:31:44.005Z,13.18
2023-04-29T20:34:12.353Z,13.17
2023-04-29T20:36:40.126Z,13.37
2023-04-29T20:39:09.585Z,13.32
2023-04-29T20:41:37.669Z,13.04
2023-04-29T20:44:05.502Z,13.04
2023-04-29T20:46:33.373Z,13.28
2023-04-29T20:49:02.631Z,13.27
2023-04-29T20:51:32.591Z,13.26
2023-04-29T20:54:00.752Z,13.14
2023-04-29T20:56:29.678Z,12.97
2023-04-29T20:58:59.384Z,12.89
2023-04-29T21:01:27.191Z,13.16
2023-04-29T21:03:55.567Z,13.39
2023-04-29T21:06:27.465Z,13.63
2023-04-29T21:08:56.110Z,13.60
2023-04-29T21:11:23.694Z,13.79
2023-04-29T21:13:52.054Z,13.49
2023-04-29T21:16:20.348Z,13.39
2023-04-29T21:18:48.070Z,13.42
2023-04-29T21:21:15.826Z,13.56
2023-04-29T21:23:44.989Z,13.27
2023-04-29T21:26:14.921Z,13.28
2023-04-29T21:28:42.847Z,13.55
2023-04-29T21:31:15.359Z,13.29
2023-04-29T21:34:02.250Z,12.99
2023-04-29T21:36:32.643Z,13.46
2023-04-29T21:39:02.274Z,13.16
2023-04-29T21:41:30.757Z,13.14
2023-04-29T21:44:00.578Z,13.40
2023-04-29T21:46:28.733Z,13.22
2023-04-29T21:48:58.343Z,13.26
2023-04-29T21:51:26.401Z,13.40
2023-04-29T21:53:54.205Z,13.17
2023-04-29T21:56:24.448Z,13.08
2023-04-29T21:58:52.538Z,13.14
2023-04-29T22:01:48.212Z,13.11
2023-04-29T22:04:16.774Z,13.01
2023-04-29T22:06:44.751Z,13.17
2023-04-29T22:09:12.666Z,13.00
2023-04-29T22:11:42.476Z,12.98
2023-04-29T22:14:10.185Z,12.99
2023-04-29T22:16:38.367Z,12.92
2023-04-29T22:19:07.415Z,12.88
2023-04-29T22:21:38.042Z,12.92
2023-04-29T22:24:06.216Z,12.77
2023-04-29T22:26:34.113Z,12.95
2023-04-29T22:29:03.302Z,12.91
2023-04-29T22:31:31.112Z,13.14
2023-04-29T22:33:58.919Z,13.25
2023-04-29T22:36:27.259Z,13.50
2023-04-29T22:38:55.005Z,13.52
2023-04-29T22:41:22.908Z,12.96
2023-04-29T22:43:52.185Z,12.83
2023-04-29T22:46:21.542Z,12.87
2023-04-29T22:48:49.476Z,12.89
2023-04-29T22:51:17.398Z,12.87
2023-04-29T22:53:45.198Z,12.74
2023-04-29T22:56:15.472Z,12.67
2023-04-29T22:58:43.084Z,12.58
2023-04-29T23:01:12.180Z,12.68
2023-04-29T23:03:41.282Z,12.68
2023-04-29T23:06:09.143Z,12.87
2023-04-29T23:08:36.841Z,13.11
2023-04-29T23:11:05.313Z,12.80
2023-04-29T23:13:32.965Z,12.81
2023-04-29T23:16:01.078Z,12.75
2023-04-29T23:18:28.826Z,12.72
2023-04-29T23:20:58.049Z,12.81
2023-04-29T23:23:25.880Z,12.79
2023-04-29T23:25:53.544Z,12.69
2023-04-29T23:28:21.356Z,12.87
2023-04-29T23:30:49.255Z,12.99
2023-04-29T23:33:17.765Z,12.71
2023-04-29T23:35:49.748Z,12.36
2023-04-29T23:38:18.905Z,12.25
2023-04-29T23:40:50.650Z,12.39
2023-04-29T23:43:19.524Z,12.43
2023-04-29T23:45:48.393Z,12.64
2023-04-29T23:48:16.837Z,12.42
2023-04-29T23:50:44.774Z,12.55
2023-04-29T23:53:12.469Z,12.42
2023-04-29T23:55:41.608Z,12.53
2023-04-29T23:58:09.414Z,12.72
